createdAt,value
2018-05-24T00:07:53.179Z,4
2018-05-24T00:17:53.124Z,3
2018-05-24T00:27:53.139Z,3
2018-05-24T00:37:53.241Z,3
2018-05-24T00:47:53.141Z,2
2018-05-24T00:57:52.508Z,3
2018-05-24T01:17:52.700Z,4
2018-05-24T01:27:52.978Z,1
2018-05-24T01:37:52.537Z,2
2018-05-24T01:47:52.660Z,5
2018-05-24T01:57:52.604Z,3
2018-05-24T02:07:52.481Z,2
2018-05-24T02:17:52.585Z,2
2018-05-24T02:27:52.587Z,2
2018-05-24T02:37:52.531Z,2
2018-05-24T02:47:52.583Z,4
2018-05-24T02:57:52.551Z,3
2018-05-24T03:07:52.602Z,6
2018-05-24T03:17:52.626Z,2
2018-05-24T03:27:52.558Z,3
2018-05-24T03:37:52.623Z,4
2018-05-24T03:47:52.595Z,3
2018-05-24T03:57:52.714Z,2
2018-05-24T04:07:52.601Z,3
2018-05-24T04:17:52.602Z,5
2018-05-24T04:27:52.559Z,5
2018-05-24T04:37:52.581Z,4
2018-05-24T04:47:52.497Z,6
2018-05-24T04:57:52.541Z,4
2018-05-24T05:07:52.529Z,4
2018-05-24T05:17:52.660Z,4
2018-05-24T05:27:52.551Z,4
2018-05-24T05:37:52.578Z,5
2018-05-24T05:47:52.689Z,4
2018-05-24T05:57:52.569Z,6
2018-05-24T06:07:53.218Z,9
2018-05-24T06:17:52.757Z,6
2018-05-24T06:27:52.752Z,6
2018-05-24T06:37:53.869Z,5
2018-05-24T06:47:53.401Z,6
2018-05-24T06:57:53.815Z,5
2018-05-24T07:07:53.075Z,4
2018-05-24T07:17:52.842Z,5
2018-05-24T07:27:52.658Z,4
2018-05-24T07:37:52.712Z,7
2018-05-24T07:48:08.537Z,5
2018-05-24T07:57:54.312Z,4
2018-05-24T08:07:52.615Z,5
2018-05-24T08:17:52.729Z,7
2018-05-24T08:27:52.611Z,7
2018-05-24T08:37:52.677Z,6
2018-05-24T08:47:52.953Z,7
2018-05-24T08:57:52.820Z,7
2018-05-24T09:07:53.286Z,6
2018-05-24T09:17:52.582Z,8
2018-05-24T09:27:53.196Z,7
2018-05-24T09:37:54.128Z,8
2018-05-24T09:47:56.075Z,9
2018-05-24T09:57:52.843Z,8
2018-05-24T10:08:06.024Z,8
2018-05-24T10:18:01.795Z,6
2018-05-24T10:27:53.873Z,8
2018-05-24T10:37:52.741Z,11
2018-05-24T10:47:52.947Z,10
2018-05-24T10:57:52.808Z,12
2018-05-24T11:07:59.089Z,12
2018-05-24T11:17:53.769Z,12
2018-05-24T11:28:02.174Z,15
2018-05-24T11:37:53.592Z,11
2018-05-24T11:47:53.025Z,11
2018-05-24T11:57:53.734Z,11
2018-05-24T12:07:53.970Z,12
2018-05-24T12:17:54.397Z,11
2018-05-24T12:27:53.537Z,11
2018-05-24T12:37:53.434Z,11
2018-05-24T12:47:54.816Z,11
2018-05-24T12:57:52.685Z,12
2018-05-24T13:07:52.628Z,13
2018-05-24T13:17:52.868Z,13
2018-05-24T13:27:52.632Z,13
2018-05-24T13:37:53.282Z,13
2018-05-24T13:47:53.791Z,13
2018-05-24T13:57:52.647Z,15
2018-05-24T14:07:56.657Z,14
2018-05-24T14:17:52.793Z,15
2018-05-24T14:27:52.741Z,15
2018-05-24T14:37:52.985Z,16
2018-05-24T14:47:52.857Z,17
2018-05-24T14:57:53.304Z,16
2018-05-24T15:07:53.336Z,17
2018-05-24T15:17:52.705Z,17
2018-05-24T15:27:52.747Z,18
2018-05-24T15:37:52.907Z,18
2018-05-24T15:47:53.059Z,15
2018-05-24T15:57:53.149Z,15
2018-05-24T16:07:52.995Z,16
2018-05-24T16:17:53.216Z,15
2018-05-24T16:27:52.862Z,15
2018-05-24T16:37:53.082Z,16
2018-05-24T16:47:53.078Z,15
2018-05-24T16:57:52.977Z,16
2018-05-24T17:07:53.240Z,16
2018-05-24T17:17:53.524Z,17
2018-05-24T17:27:53.091Z,15
2018-05-24T17:37:52.662Z,16
2018-05-24T17:47:53.344Z,15
2018-05-24T17:57:52.868Z,16
2018-05-24T18:07:52.759Z,14
2018-05-24T18:17:52.874Z,17
2018-05-24T18:27:52.666Z,16
2018-05-24T18:37:52.771Z,17
2018-05-24T18:47:52.756Z,16
2018-05-24T18:57:52.687Z,19
2018-05-24T19:07:52.674Z,16
2018-05-24T19:17:54.270Z,16
2018-05-24T19:27:52.739Z,16
2018-05-24T19:37:52.808Z,15
2018-05-24T19:47:56.143Z,15
2018-05-24T19:57:52.857Z,17
2018-05-24T20:07:52.761Z,15
2018-05-24T20:18:26.979Z,15
2018-05-24T20:27:54.424Z,14
2018-05-24T20:37:53.863Z,14
2018-05-24T20:47:53.053Z,14
2018-05-24T20:57:52.879Z,15
2018-05-24T21:07:53.001Z,16
2018-05-24T21:17:52.761Z,18
2018-05-24T21:27:53.146Z,18
2018-05-24T21:37:53.121Z,19
2018-05-24T21:47:53.264Z,21
2018-05-24T21:57:52.856Z,23
2018-05-24T22:07:52.892Z,23
2018-05-24T22:17:52.798Z,23
2018-05-24T22:27:52.805Z,23
2018-05-24T22:37:52.749Z,23
2018-05-24T22:47:52.841Z,22
2018-05-24T22:57:52.724Z,21
2018-05-24T23:07:52.745Z,19
2018-05-24T23:17:52.779Z,21
2018-05-24T23:27:52.732Z,18
2018-05-24T23:38:04.698Z,18
2018-05-24T23:48:22.715Z,19
